sensor_id;sensor_type;location;lat;lon;timestamp;P1;durP1;ratioP1;P2;durP2;ratioP2
23573;SDS011;11965;53.640;10.050;2023-02-07T00:01:24;32.55;;;32.44;;
23573;SDS011;11965;53.640;10.050;2023-02-07T00:03:53;32.08;;;31.85;;
23573;SDS011;11965;53.640;10.050;2023-02-07T00:06:26;32.26;;;31.95;;
23573;SDS011;11965;53.640;10.050;2023-02-07T00:08:55;33.05;;;32.91;;
23573;SDS011;11965;53.640;10.050;2023-02-07T00:11:24;32.93;;;32.45;;
23573;SDS011;11965;53.640;10.050;2023-02-07T00:13:54;32.16;;;31.68;;
23573;SDS011;11965;53.640;10.050;2023-02-07T00:16:25;31.99;;;31.85;;
23573;SDS011;11965;53.640;10.050;2023-02-07T00:18:53;30.71;;;30.61;;
23573;SDS011;11965;53.640;10.050;2023-02-07T00:21:23;29.93;;;29.72;;
23573;SDS011;11965;53.640;10.050;2023-02-07T00:23:51;30.75;;;30.45;;
23573;SDS011;11965;53.640;10.050;2023-02-07T00:26:21;30.63;;;30.60;;
23573;SDS011;11965;53.640;10.050;2023-02-07T00:28:50;29.58;;;29.50;;
23573;SDS011;11965;53.640;10.050;2023-02-07T00:31:20;30.11;;;29.94;;
23573;SDS011;11965;53.640;10.050;2023-02-07T00:33:52;28.98;;;28.87;;
23573;SDS011;11965;53.640;10.050;2023-02-07T00:36:21;29.76;;;29.49;;
23573;SDS011;11965;53.640;10.050;2023-02-07T00:38:56;30.43;;;30.02;;
23573;SDS011;11965;53.640;10.050;2023-02-07T00:41:26;29.18;;;29.00;;
23573;SDS011;11965;53.640;10.050;2023-02-07T00:43:54;30.08;;;30.01;;
23573;SDS011;11965;53.640;10.050;2023-02-07T00:46:25;29.46;;;29.06;;
23573;SDS011;11965;53.640;10.050;2023-02-07T00:48:54;28.79;;;28.60;;
23573;SDS011;11965;53.640;10.050;2023-02-07T00:51:21;28.85;;;28.76;;
23573;SDS011;11965;53.640;10.050;2023-02-07T00:53:50;28.93;;;28.84;;
23573;SDS011;11965;53.640;10.050;2023-02-07T00:56:18;28.86;;;28.68;;
23573;SDS011;11965;53.640;10.050;2023-02-07T00:58:46;28.78;;;28.73;;
23573;SDS011;11965;53.640;10.050;2023-02-07T01:01:13;29.29;;;28.89;;
23573;SDS011;11965;53.640;10.050;2023-02-07T01:03:41;28.42;;;28.36;;
23573;SDS011;11965;53.640;10.050;2023-02-07T01:06:10;27.67;;;27.48;;
23573;SDS011;11965;53.640;10.050;2023-02-07T01:08:39;28.37;;;28.22;;
23573;SDS011;11965;53.640;10.050;2023-02-07T01:11:07;28.16;;;28.05;;
23573;SDS011;11965;53.640;10.050;2023-02-07T01:13:39;28.40;;;27.99;;
23573;SDS011;11965;53.640;10.050;2023-02-07T01:16:15;28.38;;;28.21;;
23573;SDS011;11965;53.640;10.050;2023-02-07T01:18:48;28.92;;;28.60;;
23573;SDS011;11965;53.640;10.050;2023-02-07T01:21:17;27.64;;;27.36;;
23573;SDS011;11965;53.640;10.050;2023-02-07T01:23:46;27.62;;;27.57;;
23573;SDS011;11965;53.640;10.050;2023-02-07T01:26:13;27.35;;;27.28;;
23573;SDS011;11965;53.640;10.050;2023-02-07T01:28:40;26.85;;;26.71;;
23573;SDS011;11965;53.640;10.050;2023-02-07T01:31:09;27.05;;;26.90;;
23573;SDS011;11965;53.640;10.050;2023-02-07T01:33:38;26.48;;;26.30;;
23573;SDS011;11965;53.640;10.050;2023-02-07T01:36:05;26.42;;;26.28;;
23573;SDS011;11965;53.640;10.050;2023-02-07T01:38:44;25.52;;;25.50;;
23573;SDS011;11965;53.640;10.050;2023-02-07T01:41:12;24.77;;;24.68;;
23573;SDS011;11965;53.640;10.050;2023-02-07T01:43:56;25.57;;;25.48;;
23573;SDS011;11965;53.640;10.050;2023-02-07T01:46:28;25.60;;;25.46;;
23573;SDS011;11965;53.640;10.050;2023-02-07T01:48:57;25.06;;;25.00;;
23573;SDS011;11965;53.640;10.050;2023-02-07T01:51:30;25.03;;;25.02;;
23573;SDS011;11965;53.640;10.050;2023-02-07T01:54:01;25.10;;;24.93;;
23573;SDS011;11965;53.640;10.050;2023-02-07T01:56:32;25.00;;;24.80;;
23573;SDS011;11965;53.640;10.050;2023-02-07T01:59:05;23.75;;;23.69;;
23573;SDS011;11965;53.640;10.050;2023-02-07T02:01:35;24.22;;;24.18;;
23573;SDS011;11965;53.640;10.050;2023-02-07T02:04:02;24.07;;;24.00;;
23573;SDS011;11965;53.640;10.050;2023-02-07T02:06:31;23.67;;;23.50;;
23573;SDS011;11965;53.640;10.050;2023-02-07T02:09:08;23.51;;;23.38;;
23573;SDS011;11965;53.640;10.050;2023-02-07T02:14:35;22.32;;;22.25;;
23573;SDS011;11965;53.640;10.050;2023-02-07T02:17:20;23.09;;;22.89;;
23573;SDS011;11965;53.640;10.050;2023-02-07T02:20:11;22.59;;;22.55;;
23573;SDS011;11965;53.640;10.050;2023-02-07T02:23:17;22.89;;;22.78;;
23573;SDS011;11965;53.640;10.050;2023-02-07T02:35:15;22.30;;;22.28;;
23573;SDS011;11965;53.640;10.050;2023-02-07T02:37:54;22.41;;;22.33;;
23573;SDS011;11965;53.640;10.050;2023-02-07T02:40:33;21.62;;;21.52;;
23573;SDS011;11965;53.640;10.050;2023-02-07T02:43:13;22.57;;;22.51;;
23573;SDS011;11965;53.640;10.050;2023-02-07T02:45:56;22.21;;;22.19;;
23573;SDS011;11965;53.640;10.050;2023-02-07T02:48:28;21.84;;;21.84;;
23573;SDS011;11965;53.640;10.050;2023-02-07T02:50:58;22.21;;;22.18;;
23573;SDS011;11965;53.640;10.050;2023-02-07T02:53:25;22.20;;;22.15;;
23573;SDS011;11965;53.640;10.050;2023-02-07T02:59:10;21.57;;;21.55;;
23573;SDS011;11965;53.640;10.050;2023-02-07T03:01:53;22.27;;;22.02;;
23573;SDS011;11965;53.640;10.050;2023-02-07T03:07:34;22.06;;;21.90;;
23573;SDS011;11965;53.640;10.050;2023-02-07T03:10:17;22.50;;;22.49;;
23573;SDS011;11965;53.640;10.050;2023-02-07T03:12:56;22.08;;;22.00;;
23573;SDS011;11965;53.640;10.050;2023-02-07T03:15:35;22.47;;;22.46;;
23573;SDS011;11965;53.640;10.050;2023-02-07T03:18:16;22.25;;;22.25;;
23573;SDS011;11965;53.640;10.050;2023-02-07T03:20:53;22.43;;;22.32;;
23573;SDS011;11965;53.640;10.050;2023-02-07T03:23:27;22.78;;;22.42;;
23573;SDS011;11965;53.640;10.050;2023-02-07T03:25:56;22.46;;;22.09;;
23573;SDS011;11965;53.640;10.050;2023-02-07T03:28:29;22.08;;;21.55;;
23573;SDS011;11965;53.640;10.050;2023-02-07T03:30:58;21.77;;;21.76;;
23573;SDS011;11965;53.640;10.050;2023-02-07T03:33:30;22.27;;;22.13;;
23573;SDS011;11965;53.640;10.050;2023-02-07T03:36:02;21.95;;;21.77;;
23573;SDS011;11965;53.640;10.050;2023-02-07T03:38:36;21.90;;;21.46;;
23573;SDS011;11965;53.640;10.050;2023-02-07T03:41:05;20.80;;;20.76;;
23573;SDS011;11965;53.640;10.050;2023-02-07T03:43:40;20.82;;;20.79;;
23573;SDS011;11965;53.640;10.050;2023-02-07T03:46:09;20.79;;;20.77;;
23573;SDS011;11965;53.640;10.050;2023-02-07T03:48:37;20.79;;;20.34;;
23573;SDS011;11965;53.640;10.050;2023-02-07T03:51:05;20.18;;;20.16;;
23573;SDS011;11965;53.640;10.050;2023-02-07T03:53:32;20.61;;;20.52;;
23573;SDS011;11965;53.640;10.050;2023-02-07T03:55:59;21.05;;;21.01;;
23573;SDS011;11965;53.640;10.050;2023-02-07T03:58:26;20.69;;;20.67;;
23573;SDS011;11965;53.640;10.050;2023-02-07T04:00:53;20.72;;;20.64;;
23573;SDS011;11965;53.640;10.050;2023-02-07T04:03:19;21.14;;;20.93;;
23573;SDS011;11965;53.640;10.050;2023-02-07T04:05:46;20.86;;;20.49;;
23573;SDS011;11965;53.640;10.050;2023-02-07T04:08:15;21.00;;;20.97;;
23573;SDS011;11965;53.640;10.050;2023-02-07T04:10:42;20.68;;;20.50;;
23573;SDS011;11965;53.640;10.050;2023-02-07T04:13:21;20.59;;;20.53;;
23573;SDS011;11965;53.640;10.050;2023-02-07T04:15:53;20.55;;;20.47;;
23573;SDS011;11965;53.640;10.050;2023-02-07T04:18:19;21.78;;;21.24;;
23573;SDS011;11965;53.640;10.050;2023-02-07T04:20:46;21.58;;;21.37;;
23573;SDS011;11965;53.640;10.050;2023-02-07T04:23:13;20.68;;;20.68;;
23573;SDS011;11965;53.640;10.050;2023-02-07T04:25:44;21.23;;;21.19;;
23573;SDS011;11965;53.640;10.050;2023-02-07T04:28:15;21.47;;;21.47;;
23573;SDS011;11965;53.640;10.050;2023-02-07T04:30:44;20.81;;;20.80;;
23573;SDS011;11965;53.640;10.050;2023-02-07T04:33:11;20.87;;;20.87;;
23573;SDS011;11965;53.640;10.050;2023-02-07T04:35:39;20.97;;;20.62;;
23573;SDS011;11965;53.640;10.050;2023-02-07T04:38:08;20.15;;;20.11;;
23573;SDS011;11965;53.640;10.050;2023-02-07T04:40:38;20.27;;;20.16;;
23573;SDS011;11965;53.640;10.050;2023-02-07T04:43:06;19.81;;;19.77;;
23573;SDS011;11965;53.640;10.050;2023-02-07T04:45:33;20.55;;;20.46;;
23573;SDS011;11965;53.640;10.050;2023-02-07T04:47:59;21.12;;;20.90;;
23573;SDS011;11965;53.640;10.050;2023-02-07T04:50:26;20.92;;;20.91;;
23573;SDS011;11965;53.640;10.050;2023-02-07T04:52:53;21.06;;;20.90;;
23573;SDS011;11965;53.640;10.050;2023-02-07T04:55:20;21.21;;;20.87;;
23573;SDS011;11965;53.640;10.050;2023-02-07T04:57:47;21.38;;;21.07;;
23573;SDS011;11965;53.640;10.050;2023-02-07T05:00:16;20.96;;;20.79;;
23573;SDS011;11965;53.640;10.050;2023-02-07T05:02:43;21.61;;;21.27;;
23573;SDS011;11965;53.640;10.050;2023-02-07T05:05:10;21.00;;;20.61;;
23573;SDS011;11965;53.640;10.050;2023-02-07T05:07:39;20.85;;;20.68;;
23573;SDS011;11965;53.640;10.050;2023-02-07T05:10:06;20.98;;;20.83;;
23573;SDS011;11965;53.640;10.050;2023-02-07T05:12:34;21.94;;;21.88;;
23573;SDS011;11965;53.640;10.050;2023-02-07T05:15:01;22.16;;;22.05;;
23573;SDS011;11965;53.640;10.050;2023-02-07T05:17:32;20.64;;;20.60;;
23573;SDS011;11965;53.640;10.050;2023-02-07T05:19:59;21.72;;;21.61;;
23573;SDS011;11965;53.640;10.050;2023-02-07T05:22:26;21.40;;;21.28;;
23573;SDS011;11965;53.640;10.050;2023-02-07T05:24:53;21.08;;;20.84;;
23573;SDS011;11965;53.640;10.050;2023-02-07T05:27:21;21.43;;;21.27;;
23573;SDS011;11965;53.640;10.050;2023-02-07T05:29:48;22.89;;;22.53;;
23573;SDS011;11965;53.640;10.050;2023-02-07T05:32:15;21.87;;;21.63;;
23573;SDS011;11965;53.640;10.050;2023-02-07T05:35:01;21.36;;;21.14;;
23573;SDS011;11965;53.640;10.050;2023-02-07T05:37:29;20.60;;;20.57;;
23573;SDS011;11965;53.640;10.050;2023-02-07T05:39:55;20.91;;;20.73;;
23573;SDS011;11965;53.640;10.050;2023-02-07T05:42:22;21.89;;;21.56;;
23573;SDS011;11965;53.640;10.050;2023-02-07T05:44:49;22.35;;;22.10;;
23573;SDS011;11965;53.640;10.050;2023-02-07T05:47:18;21.94;;;21.68;;
23573;SDS011;11965;53.640;10.050;2023-02-07T05:49:45;21.82;;;21.75;;
23573;SDS011;11965;53.640;10.050;2023-02-07T05:52:13;23.08;;;22.96;;
23573;SDS011;11965;53.640;10.050;2023-02-07T05:54:40;22.55;;;22.16;;
23573;SDS011;11965;53.640;10.050;2023-02-07T05:57:07;27.59;;;27.15;;
23573;SDS011;11965;53.640;10.050;2023-02-07T05:59:34;27.90;;;27.25;;
23573;SDS011;11965;53.640;10.050;2023-02-07T06:02:01;23.65;;;23.47;;
23573;SDS011;11965;53.640;10.050;2023-02-07T06:04:28;22.48;;;22.39;;
23573;SDS011;11965;53.640;10.050;2023-02-07T06:06:55;22.52;;;22.47;;
23573;SDS011;11965;53.640;10.050;2023-02-07T06:09:23;22.34;;;22.31;;
23573;SDS011;11965;53.640;10.050;2023-02-07T06:11:50;23.25;;;23.20;;
23573;SDS011;11965;53.640;10.050;2023-02-07T06:14:16;29.50;;;28.76;;
23573;SDS011;11965;53.640;10.050;2023-02-07T06:16:43;31.49;;;31.26;;
23573;SDS011;11965;53.640;10.050;2023-02-07T06:19:10;34.75;;;34.26;;
23573;SDS011;11965;53.640;10.050;2023-02-07T06:21:40;36.08;;;35.64;;
23573;SDS011;11965;53.640;10.050;2023-02-07T06:24:07;35.82;;;35.01;;
23573;SDS011;11965;53.640;10.050;2023-02-07T06:26:35;33.65;;;33.04;;
23573;SDS011;11965;53.640;10.050;2023-02-07T06:29:02;32.70;;;32.35;;
23573;SDS011;11965;53.640;10.050;2023-02-07T06:31:29;31.31;;;31.19;;
23573;SDS011;11965;53.640;10.050;2023-02-07T06:33:58;28.83;;;28.57;;
23573;SDS011;11965;53.640;10.050;2023-02-07T06:36:27;29.71;;;29.28;;
23573;SDS011;11965;53.640;10.050;2023-02-07T06:38:54;26.48;;;26.47;;
23573;SDS011;11965;53.640;10.050;2023-02-07T06:41:20;24.24;;;24.01;;
23573;SDS011;11965;53.640;10.050;2023-02-07T06:43:49;23.78;;;23.55;;
23573;SDS011;11965;53.640;10.050;2023-02-07T06:46:16;24.54;;;24.20;;
23573;SDS011;11965;53.640;10.050;2023-02-07T06:48:43;23.58;;;23.52;;
23573;SDS011;11965;53.640;10.050;2023-02-07T06:51:12;23.75;;;23.66;;
23573;SDS011;11965;53.640;10.050;2023-02-07T06:53:39;23.55;;;23.21;;
23573;SDS011;11965;53.640;10.050;2023-02-07T06:56:06;23.43;;;23.28;;
23573;SDS011;11965;53.640;10.050;2023-02-07T06:58:33;23.55;;;23.30;;
23573;SDS011;11965;53.640;10.050;2023-02-07T07:01:02;23.03;;;22.78;;
23573;SDS011;11965;53.640;10.050;2023-02-07T07:03:29;23.35;;;23.20;;
23573;SDS011;11965;53.640;10.050;2023-02-07T07:05:56;22.79;;;22.69;;
23573;SDS011;11965;53.640;10.050;2023-02-07T07:08:24;23.54;;;23.43;;
23573;SDS011;11965;53.640;10.050;2023-02-07T07:10:52;22.91;;;22.88;;
23573;SDS011;11965;53.640;10.050;2023-02-07T07:13:21;25.62;;;25.01;;
23573;SDS011;11965;53.640;10.050;2023-02-07T07:15:51;25.02;;;24.81;;
23573;SDS011;11965;53.640;10.050;2023-02-07T07:18:19;25.35;;;25.13;;
23573;SDS011;11965;53.640;10.050;2023-02-07T07:20:51;25.50;;;25.00;;
23573;SDS011;11965;53.640;10.050;2023-02-07T07:23:21;25.05;;;24.70;;
23573;SDS011;11965;53.640;10.050;2023-02-07T07:25:48;25.13;;;24.92;;
23573;SDS011;11965;53.640;10.050;2023-02-07T07:28:17;26.50;;;25.80;;
23573;SDS011;11965;53.640;10.050;2023-02-07T07:30:43;28.51;;;28.35;;
23573;SDS011;11965;53.640;10.050;2023-02-07T07:33:11;32.77;;;32.16;;
23573;SDS011;11965;53.640;10.050;2023-02-07T07:35:39;30.91;;;30.25;;
23573;SDS011;11965;53.640;10.050;2023-02-07T07:38:06;28.29;;;27.70;;
23573;SDS011;11965;53.640;10.050;2023-02-07T07:40:33;26.81;;;26.56;;
23573;SDS011;11965;53.640;10.050;2023-02-07T07:42:59;26.50;;;26.17;;
23573;SDS011;11965;53.640;10.050;2023-02-07T07:45:41;28.48;;;28.27;;
23573;SDS011;11965;53.640;10.050;2023-02-07T07:48:08;31.22;;;30.88;;
23573;SDS011;11965;53.640;10.050;2023-02-07T07:50:37;29.54;;;29.21;;
23573;SDS011;11965;53.640;10.050;2023-02-07T07:53:05;28.92;;;28.42;;
23573;SDS011;11965;53.640;10.050;2023-02-07T07:55:32;28.25;;;27.70;;
23573;SDS011;11965;53.640;10.050;2023-02-07T07:57:58;27.29;;;26.93;;
23573;SDS011;11965;53.640;10.050;2023-02-07T08:00:25;27.67;;;27.32;;
23573;SDS011;11965;53.640;10.050;2023-02-07T08:02:52;26.85;;;26.48;;
23573;SDS011;11965;53.640;10.050;2023-02-07T08:05:19;27.76;;;27.32;;
23573;SDS011;11965;53.640;10.050;2023-02-07T08:07:47;27.10;;;26.78;;
23573;SDS011;11965;53.640;10.050;2023-02-07T08:10:15;27.48;;;27.03;;
23573;SDS011;11965;53.640;10.050;2023-02-07T08:12:45;28.26;;;28.11;;
23573;SDS011;11965;53.640;10.050;2023-02-07T08:15:12;27.82;;;27.20;;
23573;SDS011;11965;53.640;10.050;2023-02-07T08:17:38;29.88;;;29.10;;
23573;SDS011;11965;53.640;10.050;2023-02-07T08:20:08;30.95;;;30.41;;
23573;SDS011;11965;53.640;10.050;2023-02-07T08:22:36;30.60;;;30.06;;
23573;SDS011;11965;53.640;10.050;2023-02-07T08:25:05;30.35;;;29.63;;
23573;SDS011;11965;53.640;10.050;2023-02-07T08:27:35;30.90;;;30.20;;
23573;SDS011;11965;53.640;10.050;2023-02-07T08:30:04;29.78;;;28.98;;
23573;SDS011;11965;53.640;10.050;2023-02-07T08:32:33;29.62;;;29.13;;
23573;SDS011;11965;53.640;10.050;2023-02-07T08:35:00;30.10;;;29.94;;
23573;SDS011;11965;53.640;10.050;2023-02-07T08:37:32;29.44;;;29.06;;
23573;SDS011;11965;53.640;10.050;2023-02-07T08:39:59;30.03;;;29.69;;
23573;SDS011;11965;53.640;10.050;2023-02-07T08:42:33;30.77;;;30.16;;
23573;SDS011;11965;53.640;10.050;2023-02-07T08:45:04;30.70;;;29.90;;
23573;SDS011;11965;53.640;10.050;2023-02-07T08:47:31;29.87;;;29.35;;
23573;SDS011;11965;53.640;10.050;2023-02-07T08:49:58;30.45;;;30.03;;
23573;SDS011;11965;53.640;10.050;2023-02-07T08:52:28;31.60;;;30.78;;
23573;SDS011;11965;53.640;10.050;2023-02-07T08:54:55;30.74;;;30.08;;
23573;SDS011;11965;53.640;10.050;2023-02-07T08:57:22;31.06;;;30.23;;
23573;SDS011;11965;53.640;10.050;2023-02-07T08:59:53;30.74;;;30.27;;
23573;SDS011;11965;53.640;10.050;2023-02-07T09:02:20;32.00;;;31.31;;
23573;SDS011;11965;53.640;10.050;2023-02-07T09:04:47;31.78;;;30.81;;
23573;SDS011;11965;53.640;10.050;2023-02-07T09:07:14;32.09;;;31.50;;
23573;SDS011;11965;53.640;10.050;2023-02-07T09:09:44;32.21;;;31.61;;
23573;SDS011;11965;53.640;10.050;2023-02-07T09:12:11;32.23;;;31.44;;
23573;SDS011;11965;53.640;10.050;2023-02-07T09:14:39;31.84;;;30.93;;
23573;SDS011;11965;53.640;10.050;2023-02-07T09:17:09;31.90;;;30.86;;
23573;SDS011;11965;53.640;10.050;2023-02-07T09:19:36;32.24;;;31.24;;
23573;SDS011;11965;53.640;10.050;2023-02-07T09:22:03;32.40;;;31.82;;
23573;SDS011;11965;53.640;10.050;2023-02-07T09:24:30;33.46;;;32.43;;
23573;SDS011;11965;53.640;10.050;2023-02-07T09:26:57;33.62;;;32.22;;
23573;SDS011;11965;53.640;10.050;2023-02-07T09:29:26;33.86;;;32.83;;
23573;SDS011;11965;53.640;10.050;2023-02-07T09:31:52;33.33;;;32.88;;
23573;SDS011;11965;53.640;10.050;2023-02-07T09:37:06;33.71;;;32.67;;
23573;SDS011;11965;53.640;10.050;2023-02-07T09:39:34;33.06;;;31.86;;
23573;SDS011;11965;53.640;10.050;2023-02-07T09:42:05;32.06;;;31.35;;
23573;SDS011;11965;53.640;10.050;2023-02-07T09:44:52;32.84;;;31.78;;
23573;SDS011;11965;53.640;10.050;2023-02-07T09:47:26;32.77;;;31.90;;
23573;SDS011;11965;53.640;10.050;2023-02-07T09:50:00;32.70;;;31.80;;
23573;SDS011;11965;53.640;10.050;2023-02-07T09:52:35;33.62;;;32.71;;
23573;SDS011;11965;53.640;10.050;2023-02-07T09:55:08;33.89;;;32.60;;
23573;SDS011;11965;53.640;10.050;2023-02-07T09:57:47;32.91;;;32.00;;
23573;SDS011;11965;53.640;10.050;2023-02-07T10:00:22;32.41;;;31.37;;
23573;SDS011;11965;53.640;10.050;2023-02-07T10:02:54;32.43;;;31.24;;
23573;SDS011;11965;53.640;10.050;2023-02-07T10:05:28;31.37;;;30.49;;
23573;SDS011;11965;53.640;10.050;2023-02-07T10:08:06;31.30;;;30.26;;
23573;SDS011;11965;53.640;10.050;2023-02-07T10:10:41;30.84;;;29.35;;
23573;SDS011;11965;53.640;10.050;2023-02-07T10:13:36;29.16;;;28.17;;
23573;SDS011;11965;53.640;10.050;2023-02-07T10:16:18;28.25;;;27.65;;
23573;SDS011;11965;53.640;10.050;2023-02-07T10:19:02;29.16;;;28.07;;
23573;SDS011;11965;53.640;10.050;2023-02-07T10:21:46;29.19;;;28.32;;
23573;SDS011;11965;53.640;10.050;2023-02-07T10:24:34;29.71;;;28.51;;
23573;SDS011;11965;53.640;10.050;2023-02-07T10:27:27;29.98;;;29.05;;
23573;SDS011;11965;53.640;10.050;2023-02-07T10:30:03;30.04;;;29.15;;
23573;SDS011;11965;53.640;10.050;2023-02-07T10:32:44;30.64;;;29.45;;
23573;SDS011;11965;53.640;10.050;2023-02-07T10:35:17;31.52;;;30.26;;
23573;SDS011;11965;53.640;10.050;2023-02-07T10:37:50;32.21;;;30.85;;
23573;SDS011;11965;53.640;10.050;2023-02-07T10:40:23;31.53;;;30.35;;
23573;SDS011;11965;53.640;10.050;2023-02-07T10:42:57;32.08;;;31.11;;
23573;SDS011;11965;53.640;10.050;2023-02-07T10:45:32;30.84;;;29.78;;
23573;SDS011;11965;53.640;10.050;2023-02-07T10:47:59;30.82;;;29.53;;
23573;SDS011;11965;53.640;10.050;2023-02-07T10:50:26;31.60;;;30.13;;
23573;SDS011;11965;53.640;10.050;2023-02-07T10:52:55;29.45;;;28.53;;
23573;SDS011;11965;53.640;10.050;2023-02-07T10:55:35;29.51;;;28.74;;
23573;SDS011;11965;53.640;10.050;2023-02-07T10:58:11;29.03;;;28.10;;
23573;SDS011;11965;53.640;10.050;2023-02-07T11:00:42;29.97;;;28.80;;
23573;SDS011;11965;53.640;10.050;2023-02-07T11:03:16;31.19;;;29.81;;
23573;SDS011;11965;53.640;10.050;2023-02-07T11:05:51;30.53;;;29.05;;
23573;SDS011;11965;53.640;10.050;2023-02-07T11:08:27;32.63;;;31.38;;
23573;SDS011;11965;53.640;10.050;2023-02-07T11:10:59;33.54;;;32.31;;
23573;SDS011;11965;53.640;10.050;2023-02-07T11:13:50;34.85;;;33.28;;
23573;SDS011;11965;53.640;10.050;2023-02-07T11:16:19;34.48;;;33.32;;
23573;SDS011;11965;53.640;10.050;2023-02-07T11:18:53;34.12;;;32.89;;
23573;SDS011;11965;53.640;10.050;2023-02-07T11:21:25;35.02;;;33.42;;
23573;SDS011;11965;53.640;10.050;2023-02-07T11:24:01;35.90;;;34.65;;
23573;SDS011;11965;53.640;10.050;2023-02-07T11:26:33;34.49;;;33.63;;
23573;SDS011;11965;53.640;10.050;2023-02-07T11:29:07;35.53;;;34.03;;
23573;SDS011;11965;53.640;10.050;2023-02-07T11:31:42;35.07;;;33.55;;
23573;SDS011;11965;53.640;10.050;2023-02-07T11:34:23;35.21;;;33.70;;
23573;SDS011;11965;53.640;10.050;2023-02-07T11:37:06;36.03;;;34.59;;
23573;SDS011;11965;53.640;10.050;2023-02-07T11:39:37;36.58;;;35.34;;
23573;SDS011;11965;53.640;10.050;2023-02-07T11:42:09;38.31;;;36.65;;
23573;SDS011;11965;53.640;10.050;2023-02-07T11:44:39;37.30;;;35.52;;
23573;SDS011;11965;53.640;10.050;2023-02-07T11:47:08;37.18;;;35.72;;
23573;SDS011;11965;53.640;10.050;2023-02-07T11:49:44;36.72;;;35.23;;
23573;SDS011;11965;53.640;10.050;2023-02-07T11:52:15;37.72;;;36.12;;
23573;SDS011;11965;53.640;10.050;2023-02-07T11:54:49;39.20;;;37.57;;
23573;SDS011;11965;53.640;10.050;2023-02-07T11:57:20;38.82;;;37.21;;
23573;SDS011;11965;53.640;10.050;2023-02-07T12:00:00;38.66;;;36.88;;
23573;SDS011;11965;53.640;10.050;2023-02-07T12:02:38;38.00;;;36.24;;
23573;SDS011;11965;53.640;10.050;2023-02-07T12:05:08;36.96;;;35.29;;
23573;SDS011;11965;53.640;10.050;2023-02-07T12:07:43;36.61;;;35.11;;
23573;SDS011;11965;53.640;10.050;2023-02-07T12:10:19;35.67;;;34.59;;
23573;SDS011;11965;53.640;10.050;2023-02-07T12:12:50;35.39;;;33.95;;
23573;SDS011;11965;53.640;10.050;2023-02-07T12:15:30;37.97;;;36.34;;
23573;SDS011;11965;53.640;10.050;2023-02-07T12:18:06;36.92;;;35.46;;
23573;SDS011;11965;53.640;10.050;2023-02-07T12:20:43;35.78;;;34.14;;
23573;SDS011;11965;53.640;10.050;2023-02-07T12:23:22;35.92;;;34.22;;
23573;SDS011;11965;53.640;10.050;2023-02-07T12:26:11;38.60;;;36.78;;
23573;SDS011;11965;53.640;10.050;2023-02-07T12:28:48;37.04;;;35.59;;
23573;SDS011;11965;53.640;10.050;2023-02-07T12:31:36;35.37;;;33.67;;
23573;SDS011;11965;53.640;10.050;2023-02-07T12:34:16;37.10;;;35.39;;
23573;SDS011;11965;53.640;10.050;2023-02-07T12:36:54;36.47;;;34.79;;
23573;SDS011;11965;53.640;10.050;2023-02-07T12:39:30;35.86;;;34.21;;
23573;SDS011;11965;53.640;10.050;2023-02-07T12:42:11;35.31;;;33.83;;
23573;SDS011;11965;53.640;10.050;2023-02-07T12:44:52;36.03;;;34.37;;
23573;SDS011;11965;53.640;10.050;2023-02-07T12:47:26;36.18;;;34.59;;
23573;SDS011;11965;53.640;10.050;2023-02-07T12:53:12;37.80;;;36.17;;
23573;SDS011;11965;53.640;10.050;2023-02-07T12:55:55;38.12;;;36.50;;
23573;SDS011;11965;53.640;10.050;2023-02-07T12:58:38;38.43;;;36.23;;
23573;SDS011;11965;53.640;10.050;2023-02-07T13:01:19;37.62;;;35.73;;
23573;SDS011;11965;53.640;10.050;2023-02-07T13:07:04;35.21;;;33.77;;
23573;SDS011;11965;53.640;10.050;2023-02-07T13:09:41;35.10;;;33.88;;
23573;SDS011;11965;53.640;10.050;2023-02-07T13:12:20;34.88;;;33.44;;
23573;SDS011;11965;53.640;10.050;2023-02-07T13:15:03;33.88;;;32.55;;
23573;SDS011;11965;53.640;10.050;2023-02-07T13:17:47;31.81;;;30.11;;
23573;SDS011;11965;53.640;10.050;2023-02-07T13:20:40;32.04;;;30.51;;
23573;SDS011;11965;53.640;10.050;2023-02-07T13:23:23;31.16;;;29.68;;
23573;SDS011;11965;53.640;10.050;2023-02-07T13:25:54;30.04;;;28.90;;
23573;SDS011;11965;53.640;10.050;2023-02-07T13:28:27;31.17;;;30.21;;
23573;SDS011;11965;53.640;10.050;2023-02-07T13:31:09;31.52;;;30.05;;
23573;SDS011;11965;53.640;10.050;2023-02-07T13:33:41;30.90;;;29.72;;
23573;SDS011;11965;53.640;10.050;2023-02-07T13:36:13;31.99;;;30.63;;
23573;SDS011;11965;53.640;10.050;2023-02-07T13:38:56;29.98;;;28.61;;
23573;SDS011;11965;53.640;10.050;2023-02-07T13:41:40;29.71;;;28.66;;
23573;SDS011;11965;53.640;10.050;2023-02-07T13:44:19;30.85;;;29.36;;
23573;SDS011;11965;53.640;10.050;2023-02-07T13:47:00;29.64;;;28.39;;
23573;SDS011;11965;53.640;10.050;2023-02-07T13:49:43;29.42;;;28.21;;
23573;SDS011;11965;53.640;10.050;2023-02-07T13:52:17;29.59;;;28.33;;
23573;SDS011;11965;53.640;10.050;2023-02-07T13:54:58;30.43;;;29.30;;
23573;SDS011;11965;53.640;10.050;2023-02-07T13:57:41;29.39;;;28.25;;
23573;SDS011;11965;53.640;10.050;2023-02-07T14:00:27;28.77;;;27.42;;
23573;SDS011;11965;53.640;10.050;2023-02-07T14:02:58;29.73;;;28.52;;
23573;SDS011;11965;53.640;10.050;2023-02-07T14:05:30;30.18;;;29.07;;
23573;SDS011;11965;53.640;10.050;2023-02-07T14:08:00;30.00;;;28.89;;
23573;SDS011;11965;53.640;10.050;2023-02-07T14:13:20;30.05;;;28.93;;
23573;SDS011;11965;53.640;10.050;2023-02-07T14:15:59;30.20;;;28.98;;
23573;SDS011;11965;53.640;10.050;2023-02-07T14:21:30;32.74;;;31.28;;
23573;SDS011;11965;53.640;10.050;2023-02-07T14:27:01;32.49;;;30.92;;
23573;SDS011;11965;53.640;10.050;2023-02-07T14:29:39;33.19;;;31.70;;
23573;SDS011;11965;53.640;10.050;2023-02-07T14:32:26;34.21;;;32.40;;
23573;SDS011;11965;53.640;10.050;2023-02-07T14:35:13;34.06;;;32.53;;
23573;SDS011;11965;53.640;10.050;2023-02-07T14:38:00;34.13;;;32.96;;
23573;SDS011;11965;53.640;10.050;2023-02-07T14:40:50;35.14;;;33.15;;
23573;SDS011;11965;53.640;10.050;2023-02-07T14:43:22;33.58;;;32.26;;
23573;SDS011;11965;53.640;10.050;2023-02-07T14:46:00;35.50;;;33.40;;
23573;SDS011;11965;53.640;10.050;2023-02-07T14:48:43;34.64;;;33.06;;
23573;SDS011;11965;53.640;10.050;2023-02-07T14:51:20;34.41;;;32.68;;
23573;SDS011;11965;53.640;10.050;2023-02-07T14:53:57;34.08;;;32.17;;
23573;SDS011;11965;53.640;10.050;2023-02-07T14:56:40;32.75;;;31.40;;
23573;SDS011;11965;53.640;10.050;2023-02-07T14:59:14;32.18;;;30.99;;
23573;SDS011;11965;53.640;10.050;2023-02-07T15:01:48;34.66;;;33.78;;
23573;SDS011;11965;53.640;10.050;2023-02-07T15:04:16;33.03;;;31.80;;
23573;SDS011;11965;53.640;10.050;2023-02-07T15:06:44;33.29;;;32.03;;
23573;SDS011;11965;53.640;10.050;2023-02-07T15:09:16;33.18;;;31.72;;
23573;SDS011;11965;53.640;10.050;2023-02-07T15:11:47;32.86;;;31.73;;
23573;SDS011;11965;53.640;10.050;2023-02-07T15:14:21;33.14;;;31.88;;